Time;durP1;ratioP1;P1;durP2;ratioP2;P2;SDS_P1;SDS_P2;PMS_P1;PMS_P2;Temp;Humidity;BMP_temperature;BMP_pressure;BME280_temperature;BME280_humidity;BME280_pressure;Samples;Min_cycle;Max_cycle;Signal;HPM_P1;HPM_P2
2024/04/25 00:00:15;;;;;;;4.43;2.87;;;2.50;99.90;;;;;;2247707;26;20326;-69
2024/04/25 00:01:16;;;;;;;3.50;2.70;;;2.50;99.90;;;;;;2227653;26;20260;-70
2024/04/25 00:02:16;;;;;;;6.53;2.73;;;2.50;99.90;;;;;;2247452;26;21571;-69
2024/04/25 00:03:17;;;;;;;4.10;2.83;;;2.50;99.90;;;;;;2244403;26;20285;-69
2024/04/25 00:04:18;;;;;;;6.10;3.17;;;2.50;99.90;;;;;;2233723;26;20323;-69
2024/04/25 00:05:21;;;;;;;3.83;2.43;;;2.50;99.90;;;;;;2251435;26;20231;-69
2024/04/25 00:06:21;;;;;;;3.47;2.60;;;2.50;99.90;;;;;;2244891;26;20282;-69
2024/04/25 00:07:22;;;;;;;3.83;2.77;;;2.40;99.90;;;;;;2237017;26;20269;-70
2024/04/25 00:08:23;;;;;;;3.00;2.40;;;2.40;99.90;;;;;;2241153;26;21557;-69
2024/04/25 00:09:23;;;;;;;5.43;3.00;;;2.40;99.90;;;;;;2244198;26;20713;-69
2024/04/25 00:10:24;;;;;;;4.73;3.17;;;2.40;99.90;;;;;;2251146;26;20298;-69
2024/04/25 00:11:26;;;;;;;4.20;2.83;;;2.30;99.90;;;;;;2248382;26;20254;-69
2024/04/25 00:12:26;;;;;;;3.85;2.90;;;2.30;99.90;;;;;;2238938;26;20280;-69
2024/04/25 00:13:27;;;;;;;3.33;2.70;;;2.20;99.90;;;;;;2243442;26;20263;-70
2024/04/25 00:14:28;;;;;;;3.37;2.77;;;2.10;99.90;;;;;;2242906;26;20609;-69
2024/04/25 00:15:28;;;;;;;4.43;3.07;;;2.10;99.90;;;;;;2243716;26;20269;-70
2024/04/25 00:16:29;;;;;;;5.87;3.37;;;2.00;99.90;;;;;;2243190;26;20856;-69
2024/04/25 00:17:30;;;;;;;4.70;3.13;;;2.00;99.90;;;;;;2244129;26;20271;-69
2024/04/25 00:18:31;;;;;;;4.97;2.90;;;2.10;99.90;;;;;;2238916;26;20271;-70
2024/04/25 00:19:31;;;;;;;4.47;3.13;;;2.20;99.90;;;;;;2249011;26;20269;-69
2024/04/25 00:20:32;;;;;;;5.03;3.03;;;2.10;99.90;;;;;;2244095;26;20822;-69
2024/04/25 00:21:32;;;;;;;3.83;3.00;;;2.10;99.90;;;;;;2243325;26;20310;-69
2024/04/25 00:22:33;;;;;;;4.57;3.17;;;2.10;99.90;;;;;;2245691;26;20314;-69
2024/04/25 00:23:34;;;;;;;5.13;3.27;;;2.10;99.90;;;;;;2249546;26;20322;-69
2024/04/25 00:24:35;;;;;;;3.90;3.00;;;2.10;99.90;;;;;;2244011;26;20274;-68
2024/04/25 00:25:35;;;;;;;5.70;3.23;;;2.10;99.90;;;;;;2244193;26;20263;-68
2024/04/25 00:26:36;;;;;;;5.53;3.07;;;2.10;99.90;;;;;;2251567;26;20313;-68
2024/04/25 00:27:37;;;;;;;3.20;2.60;;;2.00;99.90;;;;;;2236714;26;20256;-69
2024/04/25 00:28:37;;;;;;;6.67;3.27;;;1.80;99.90;;;;;;2231481;26;20304;-68
2024/04/25 00:29:38;;;;;;;6.17;3.83;;;1.80;99.90;;;;;;2251270;26;20305;-68
2024/04/25 00:30:39;;;;;;;5.33;3.07;;;1.80;99.90;;;;;;2251573;26;20279;-68
2024/04/25 00:31:39;;;;;;;3.47;2.93;;;1.80;99.90;;;;;;2221249;26;20266;-69
2024/04/25 00:32:42;;;;;;;3.53;2.67;;;1.80;99.90;;;;;;2222419;26;20318;-69
2024/04/25 00:33:42;;;;;;;7.90;3.55;;;1.80;99.90;;;;;;2230777;26;20385;-69
2024/04/25 00:34:43;;;;;;;5.07;2.93;;;1.70;99.90;;;;;;2221209;26;20279;-69
2024/04/25 00:35:44;;;;;;;5.60;3.03;;;1.70;99.90;;;;;;2215643;26;20308;-68
2024/04/25 00:36:45;;;;;;;5.63;3.33;;;1.70;99.90;;;;;;2244833;26;20305;-69
2024/04/25 00:37:45;;;;;;;4.17;2.63;;;1.60;99.90;;;;;;2251393;26;20806;-68
2024/04/25 00:38:46;;;;;;;4.17;2.70;;;1.60;99.90;;;;;;2233627;26;20304;-68
2024/04/25 00:39:47;;;;;;;4.77;2.80;;;1.60;99.90;;;;;;2242140;26;20405;-68
2024/04/25 00:40:48;;;;;;;3.50;2.50;;;1.60;99.90;;;;;;2240078;26;20281;-69
2024/04/25 00:41:49;;;;;;;4.47;2.72;;;1.60;99.90;;;;;;2233591;26;20307;-68
2024/04/25 00:42:50;;;;;;;3.42;2.60;;;1.70;99.90;;;;;;2235154;26;20271;-69
2024/04/25 00:43:51;;;;;;;3.53;2.50;;;1.70;99.90;;;;;;2251503;26;20301;-69
2024/04/25 00:44:52;;;;;;;4.47;2.70;;;1.70;99.90;;;;;;2238824;26;20313;-69
2024/04/25 00:45:53;;;;;;;4.35;2.83;;;1.60;99.90;;;;;;2250985;26;20490;-69
2024/04/25 00:46:55;;;;;;;3.07;2.70;;;1.60;99.90;;;;;;2245222;26;20257;-69
2024/04/25 00:47:56;;;;;;;8.80;3.10;;;1.60;99.90;;;;;;2244597;26;20680;-69
2024/04/25 00:48:58;;;;;;;2.88;2.30;;;1.60;99.90;;;;;;2244643;26;20265;-70
2024/04/25 00:50:00;;;;;;;2.85;2.05;;;1.50;99.90;;;;;;2251328;26;21015;-70
2024/04/25 00:51:04;;;;;;;3.22;2.63;;;1.40;99.90;;;;;;2244404;26;22132;-69
2024/04/25 00:52:07;;;;;;;3.65;2.90;;;1.40;99.90;;;;;;2232288;26;20298;-70
2024/04/25 00:53:08;;;;;;;4.90;2.75;;;1.40;99.90;;;;;;2236367;26;20237;-68
2024/04/25 00:54:09;;;;;;;3.67;2.63;;;1.40;99.90;;;;;;2221988;26;20230;-69
2024/04/25 00:55:10;;;;;;;3.00;2.47;;;1.40;99.90;;;;;;2222479;26;21182;-69
2024/04/25 00:56:11;;;;;;;3.00;2.30;;;1.40;99.90;;;;;;2236058;26;20275;-68
2024/04/25 00:57:14;;;;;;;3.33;2.42;;;1.40;99.90;;;;;;2221429;26;20224;-68
2024/04/25 00:58:21;;;;;;;2.90;2.33;;;1.30;99.90;;;;;;2217351;26;20224;-68
2024/04/25 00:59:24;;;;;;;3.25;2.53;;;1.30;99.90;;;;;;2230872;26;20269;-68
2024/04/25 01:00:26;;;;;;;3.50;2.60;;;1.30;99.90;;;;;;2236487;26;20267;-68
2024/04/25 01:01:27;;;;;;;3.67;2.70;;;1.30;99.90;;;;;;2249578;26;20268;-68
2024/04/25 01:02:30;;;;;;;3.93;3.00;;;1.30;99.90;;;;;;2241700;26;20270;-69
2024/04/25 01:03:33;;;;;;;3.35;2.22;;;1.30;99.90;;;;;;2245742;26;20497;-69
2024/04/25 01:04:35;;;;;;;3.50;2.47;;;1.40;99.90;;;;;;2246481;26;20312;-68
2024/04/25 01:05:39;;;;;;;4.43;2.55;;;1.40;99.90;;;;;;2234551;26;20275;-68
2024/04/25 01:06:41;;;;;;;4.15;3.33;;;1.40;99.90;;;;;;2234114;26;20266;-68
2024/04/25 01:07:41;;;;;;;4.40;2.67;;;1.40;99.90;;;;;;2231933;26;20269;-68
2024/04/25 01:08:44;;;;;;;3.90;2.73;;;1.40;99.90;;;;;;2220546;26;20269;-69
2024/04/25 01:09:45;;;;;;;3.50;2.72;;;1.40;99.90;;;;;;2219313;26;20271;-69
2024/04/25 01:10:46;;;;;;;3.97;2.73;;;1.40;99.90;;;;;;2233037;26;20268;-69
2024/04/25 01:11:46;;;;;;;4.13;2.92;;;1.30;99.90;;;;;;2232817;26;20266;-68
2024/04/25 01:12:47;;;;;;;4.43;2.67;;;1.40;99.90;;;;;;2237194;26;20298;-69
2024/04/25 01:13:48;;;;;;;4.07;2.97;;;1.40;99.90;;;;;;2229089;26;20354;-68
2024/04/25 01:14:49;;;;;;;4.70;2.80;;;1.30;99.90;;;;;;2240667;26;20343;-69
2024/04/25 01:15:49;;;;;;;5.03;2.67;;;1.30;99.90;;;;;;2243031;26;20334;-68
2024/04/25 01:16:50;;;;;;;3.57;2.53;;;1.40;99.90;;;;;;2244927;26;20327;-68
2024/04/25 01:17:51;;;;;;;3.63;2.50;;;1.50;99.90;;;;;;2243515;26;20346;-69
2024/04/25 01:18:51;;;;;;;5.63;3.00;;;1.50;99.90;;;;;;2228892;26;20318;-68
2024/04/25 01:19:52;;;;;;;6.03;2.93;;;1.50;99.90;;;;;;2243006;26;20376;-68
2024/04/25 01:20:53;;;;;;;6.07;2.60;;;1.40;99.90;;;;;;2243694;26;20300;-68
2024/04/25 01:21:55;;;;;;;4.50;2.90;;;1.50;99.90;;;;;;2244666;26;20267;-69
2024/04/25 01:22:58;;;;;;;3.83;2.67;;;1.50;99.90;;;;;;2250552;26;20446;-69
2024/04/25 01:24:02;;;;;;;4.20;2.67;;;1.60;99.90;;;;;;2246232;26;20270;-69
2024/04/25 01:25:06;;;;;;;4.75;2.45;;;1.70;99.90;;;;;;2228254;26;20241;-68
2024/04/25 01:26:08;;;;;;;3.80;2.58;;;1.70;99.90;;;;;;2244871;26;20574;-69
2024/04/25 01:27:09;;;;;;;4.20;2.97;;;1.80;99.90;;;;;;2243417;26;20266;-68
2024/04/25 01:28:15;;;;;;;5.70;3.35;;;1.80;99.90;;;;;;2221484;26;20337;-68
2024/04/25 01:29:17;;;;;;;3.83;2.83;;;1.80;99.90;;;;;;2230601;26;20266;-68
2024/04/25 01:30:18;;;;;;;6.38;2.90;;;1.80;99.90;;;;;;2250614;26;20997;-69
2024/04/25 01:31:19;;;;;;;4.00;3.30;;;1.90;99.90;;;;;;2249427;26;20232;-69
2024/04/25 01:32:20;;;;;;;4.28;2.92;;;1.80;99.90;;;;;;2242377;26;20295;-69
2024/04/25 01:33:21;;;;;;;4.00;2.90;;;1.80;99.90;;;;;;2241595;26;20841;-68
2024/04/25 01:34:23;;;;;;;6.07;2.80;;;1.80;99.90;;;;;;2234831;26;20266;-69
2024/04/25 01:35:29;;;;;;;6.55;3.25;;;1.90;99.90;;;;;;2220933;26;20630;-69
2024/04/25 01:36:29;;;;;;;3.67;2.47;;;1.80;99.90;;;;;;2220762;26;20273;-69
2024/04/25 01:37:31;;;;;;;4.97;2.97;;;1.90;99.90;;;;;;2242149;26;20944;-69
2024/04/25 01:38:31;;;;;;;4.75;3.03;;;1.80;99.90;;;;;;2242980;26;20783;-69
2024/04/25 01:39:32;;;;;;;5.63;2.97;;;1.80;99.90;;;;;;2241863;26;20339;-69
2024/04/25 01:40:33;;;;;;;4.53;2.77;;;1.80;99.90;;;;;;2245978;26;20746;-69
2024/04/25 01:41:33;;;;;;;4.30;2.97;;;1.80;99.90;;;;;;2230669;26;20271;-68
2024/04/25 01:42:34;;;;;;;4.03;2.57;;;1.80;99.90;;;;;;2222232;26;20375;-69
2024/04/25 01:43:35;;;;;;;6.37;3.63;;;1.70;99.90;;;;;;2234091;26;20653;-69
2024/04/25 01:44:35;;;;;;;4.07;3.00;;;1.70;99.90;;;;;;2234205;26;20309;-69
2024/04/25 01:45:36;;;;;;;4.53;2.97;;;1.70;99.90;;;;;;2245855;26;20391;-69
2024/04/25 01:46:42;;;;;;;3.80;2.73;;;1.70;99.90;;;;;;2232586;26;20299;-68
2024/04/25 01:47:42;;;;;;;3.35;2.55;;;1.70;99.90;;;;;;2215373;26;20267;-69
2024/04/25 01:48:46;;;;;;;3.33;2.73;;;1.80;99.90;;;;;;2231339;26;20781;-69
2024/04/25 01:49:47;;;;;;;5.15;2.95;;;1.80;99.90;;;;;;2233914;26;20315;-69
2024/04/25 01:50:47;;;;;;;5.53;3.30;;;1.80;99.90;;;;;;2235548;26;20369;-69
2024/04/25 01:51:48;;;;;;;4.07;3.03;;;1.90;99.90;;;;;;2248840;26;20265;-69
2024/04/25 01:52:49;;;;;;;4.13;2.90;;;1.90;99.90;;;;;;2243435;26;20364;-69
2024/04/25 01:53:50;;;;;;;5.50;3.23;;;1.90;99.90;;;;;;2229433;26;20320;-68
2024/04/25 01:54:50;;;;;;;3.53;2.80;;;2.00;99.90;;;;;;2241952;26;20261;-69
2024/04/25 01:55:51;;;;;;;4.20;2.67;;;2.00;99.90;;;;;;2243316;26;20267;-69
2024/04/25 01:56:52;;;;;;;4.47;3.28;;;2.00;99.90;;;;;;2228334;26;20359;-69
2024/04/25 01:57:53;;;;;;;5.10;3.42;;;2.00;99.90;;;;;;2243542;26;20303;-69
2024/04/25 01:58:54;;;;;;;7.43;3.13;;;1.90;99.90;;;;;;2249593;26;20398;-69
2024/04/25 01:59:55;;;;;;;4.80;3.13;;;1.90;99.90;;;;;;2228008;26;20322;-69
2024/04/25 02:00:55;;;;;;;5.50;3.30;;;1.90;99.90;;;;;;2227532;26;20335;-69
2024/04/25 02:01:56;;;;;;;4.70;3.30;;;1.90;99.90;;;;;;2220025;26;20865;-69
2024/04/25 02:02:57;;;;;;;3.77;2.50;;;1.90;99.90;;;;;;2235444;26;20317;-69
2024/04/25 02:03:58;;;;;;;4.97;3.30;;;2.00;99.90;;;;;;2244533;26;20277;-69
2024/04/25 02:04:58;;;;;;;4.65;3.28;;;1.90;99.90;;;;;;2216440;26;20266;-69
2024/04/25 02:05:59;;;;;;;4.80;3.70;;;1.90;99.90;;;;;;2234919;26;20315;-69
2024/04/25 02:07:00;;;;;;;3.30;2.60;;;1.90;99.90;;;;;;2249841;26;20760;-69
2024/04/25 02:08:00;;;;;;;5.00;3.33;;;1.90;99.90;;;;;;2244102;26;20314;-69
2024/04/25 02:09:01;;;;;;;4.90;2.93;;;1.90;99.90;;;;;;2247763;26;20675;-67
2024/04/25 02:10:02;;;;;;;5.13;3.20;;;1.90;99.90;;;;;;2249703;26;20271;-68
2024/04/25 02:11:07;;;;;;;15.32;4.10;;;2.00;99.90;;;;;;2249618;26;20231;-68
2024/04/25 02:12:08;;;;;;;4.15;2.97;;;2.10;99.90;;;;;;2219570;26;20260;-68
2024/04/25 02:13:09;;;;;;;5.47;3.20;;;2.10;99.90;;;;;;2232699;26;20224;-69
2024/04/25 02:14:09;;;;;;;5.30;2.90;;;2.10;99.90;;;;;;2248303;26;20218;-68
2024/04/25 02:15:10;;;;;;;4.80;2.90;;;2.10;99.90;;;;;;2235233;26;20321;-69
2024/04/25 02:16:11;;;;;;;3.20;2.70;;;2.10;99.90;;;;;;2246233;26;20228;-69
2024/04/25 02:17:13;;;;;;;4.07;3.07;;;2.10;99.90;;;;;;2247033;26;21036;-69
2024/04/25 02:18:14;;;;;;;5.53;3.10;;;2.20;99.90;;;;;;2249393;26;20217;-69
2024/04/25 02:19:14;;;;;;;5.97;3.00;;;2.20;99.90;;;;;;2247749;26;20847;-68
2024/04/25 02:25:40;;;;;;;4.55;3.13;;;2.30;99.90;;;;;;2244120;26;20262;-69
2024/04/25 02:26:42;;;;;;;5.47;3.00;;;2.30;99.90;;;;;;2231905;26;20267;-69
2024/04/25 02:27:44;;;;;;;3.97;2.60;;;2.20;99.90;;;;;;2217865;26;20351;-68
2024/04/25 02:28:45;;;;;;;6.47;2.95;;;2.20;99.90;;;;;;2228935;26;20887;-69
2024/04/25 02:29:45;;;;;;;3.70;3.00;;;2.20;99.90;;;;;;2242310;26;20268;-69
2024/04/25 02:30:46;;;;;;;6.77;3.27;;;2.20;99.90;;;;;;2244137;26;20746;-69
2024/04/25 02:31:47;;;;;;;6.07;3.23;;;2.30;99.90;;;;;;2225963;26;20318;-69
2024/04/25 02:32:47;;;;;;;3.80;2.67;;;2.20;99.90;;;;;;2225455;26;20303;-69
2024/04/25 02:33:48;;;;;;;4.40;3.30;;;2.20;99.90;;;;;;2244810;26;20267;-69
2024/04/25 02:34:49;;;;;;;3.73;3.00;;;2.20;99.90;;;;;;2244638;26;20384;-69
2024/04/25 02:35:50;;;;;;;4.13;3.00;;;2.20;99.90;;;;;;2227951;26;20807;-69
2024/04/25 02:36:50;;;;;;;3.57;3.10;;;2.20;99.90;;;;;;2243780;26;20267;-69
2024/04/25 02:37:51;;;;;;;5.40;2.70;;;2.10;99.90;;;;;;2258085;26;20270;-69
2024/04/25 02:38:52;;;;;;;5.00;2.73;;;2.10;99.90;;;;;;2249945;26;20266;-69
2024/04/25 02:39:52;;;;;;;5.33;3.10;;;2.10;99.90;;;;;;2235199;26;20280;-69
2024/04/25 02:40:53;;;;;;;5.33;2.80;;;2.10;99.90;;;;;;2230972;26;20298;-69
2024/04/25 02:41:54;;;;;;;4.77;2.90;;;2.10;99.90;;;;;;2227979;26;20738;-69
2024/04/25 02:42:54;;;;;;;4.87;2.83;;;2.10;99.90;;;;;;2233253;26;20315;-69
2024/04/25 02:43:55;;;;;;;4.03;3.23;;;2.10;99.90;;;;;;2234481;26;20267;-69
2024/04/25 02:44:55;;;;;;;4.07;2.60;;;2.10;99.90;;;;;;2242382;26;20325;-69
2024/04/25 02:45:56;;;;;;;6.67;3.40;;;2.10;99.90;;;;;;2234393;26;20847;-69
2024/04/25 02:46:57;;;;;;;7.13;3.37;;;2.10;99.90;;;;;;2248365;26;20746;-69
2024/04/25 02:47:57;;;;;;;6.20;3.80;;;2.00;99.90;;;;;;2235779;26;20271;-69
2024/04/25 02:48:58;;;;;;;5.23;3.53;;;2.00;99.90;;;;;;2235398;26;20277;-69
2024/04/25 02:49:59;;;;;;;5.70;3.10;;;1.90;99.90;;;;;;2234556;26;20269;-69
2024/04/25 02:50:59;;;;;;;6.93;2.70;;;1.90;99.90;;;;;;2243070;26;20312;-69
2024/04/25 02:52:00;;;;;;;4.30;3.17;;;1.90;99.90;;;;;;2248289;26;20270;-69
2024/04/25 02:53:01;;;;;;;5.50;3.00;;;1.90;99.90;;;;;;2228133;26;20239;-69
2024/04/25 02:54:02;;;;;;;5.77;3.10;;;1.80;99.90;;;;;;2231084;26;20231;-69
2024/04/25 02:55:03;;;;;;;4.23;2.93;;;1.80;99.90;;;;;;2239365;26;20638;-69
2024/04/25 02:56:04;;;;;;;3.43;2.50;;;1.80;99.90;;;;;;2222320;26;20233;-69
2024/04/25 02:57:05;;;;;;;5.05;2.95;;;1.70;99.90;;;;;;2228837;26;20224;-69
2024/04/25 02:58:05;;;;;;;5.80;3.47;;;1.70;99.90;;;;;;2262779;26;20287;-69
2024/04/25 02:59:06;;;;;;;4.03;2.90;;;1.70;99.90;;;;;;2252906;26;20230;-69
2024/04/25 03:00:07;;;;;;;5.20;3.43;;;1.70;99.90;;;;;;2247642;26;20238;-69
2024/04/25 03:01:08;;;;;;;3.75;2.75;;;1.70;99.90;;;;;;2240640;26;20221;-69
2024/04/25 03:02:09;;;;;;;5.77;3.07;;;1.80;99.90;;;;;;2241954;26;20342;-69
2024/04/25 03:03:10;;;;;;;5.10;3.10;;;1.80;99.90;;;;;;2219247;26;20233;-69
2024/04/25 03:04:10;;;;;;;4.53;3.17;;;1.80;99.90;;;;;;2235604;26;20219;-68
2024/04/25 03:05:11;;;;;;;3.67;2.60;;;1.80;99.90;;;;;;2246684;26;20222;-68
2024/04/25 03:06:12;;;;;;;4.43;3.13;;;1.80;99.90;;;;;;2231818;26;20379;-69
2024/04/25 03:07:12;;;;;;;4.47;3.07;;;1.80;99.90;;;;;;2219883;26;20693;-69
2024/04/25 03:08:13;;;;;;;3.97;3.10;;;1.80;99.90;;;;;;2235212;26;20332;-68
2024/04/25 03:09:14;;;;;;;4.23;3.03;;;1.70;99.90;;;;;;2248310;26;20258;-69
2024/04/25 03:10:15;;;;;;;4.83;3.37;;;1.70;99.90;;;;;;2234368;26;20231;-69
2024/04/25 03:11:15;;;;;;;5.03;3.03;;;1.60;99.90;;;;;;2227849;26;20345;-68
2024/04/25 03:12:16;;;;;;;4.83;3.43;;;1.70;99.90;;;;;;2219706;26;20244;-69
2024/04/25 03:13:17;;;;;;;7.03;3.37;;;1.60;99.90;;;;;;2235746;26;20255;-69
2024/04/25 03:14:17;;;;;;;5.33;3.17;;;1.60;99.90;;;;;;2234661;26;20304;-69
2024/04/25 03:15:18;;;;;;;5.27;3.57;;;1.70;99.90;;;;;;2223378;26;20249;-69
2024/04/25 03:16:19;;;;;;;5.67;3.27;;;1.70;99.90;;;;;;2240815;26;20264;-69
2024/04/25 03:17:19;;;;;;;5.77;3.53;;;1.70;99.90;;;;;;2244557;26;20219;-69
2024/04/25 03:18:20;;;;;;;7.27;3.37;;;1.70;99.90;;;;;;2226179;26;20248;-68
2024/04/25 03:19:21;;;;;;;4.60;3.27;;;1.70;99.90;;;;;;2240871;26;20425;-68
2024/04/25 03:20:21;;;;;;;4.67;2.90;;;1.70;99.90;;;;;;2237075;26;20822;-68
2024/04/25 03:21:23;;;;;;;4.00;3.00;;;1.80;99.90;;;;;;2230470;26;20278;-69
2024/04/25 03:22:23;;;;;;;3.85;2.72;;;1.80;99.90;;;;;;2233391;26;20331;-69
2024/04/25 03:23:24;;;;;;;5.10;3.57;;;1.80;99.90;;;;;;2246279;26;20741;-69
2024/04/25 03:24:25;;;;;;;4.60;2.67;;;1.70;99.90;;;;;;2243509;26;20263;-69
2024/04/25 03:25:26;;;;;;;5.03;3.57;;;1.70;99.90;;;;;;2246656;26;20281;-69
2024/04/25 03:26:26;;;;;;;5.40;4.33;;;1.60;99.90;;;;;;2229744;26;20314;-69
2024/04/25 03:27:27;;;;;;;3.87;3.07;;;1.60;99.90;;;;;;2227068;26;20615;-69
2024/04/25 03:28:27;;;;;;;6.30;4.50;;;1.60;99.90;;;;;;2220233;26;20283;-69
2024/04/25 03:29:28;;;;;;;6.03;4.00;;;1.50;99.90;;;;;;2216352;26;20313;-69
2024/04/25 03:30:29;;;;;;;14.90;7.43;;;1.50;99.90;;;;;;2233224;26;20366;-69
2024/04/25 03:31:30;;;;;;;11.57;7.07;;;1.50;99.90;;;;;;2247464;26;20642;-69
2024/04/25 03:32:30;;;;;;;5.60;4.00;;;1.50;99.90;;;;;;2236591;26;20313;-68
2024/04/25 03:33:31;;;;;;;4.50;3.20;;;1.40;99.90;;;;;;2229874;26;20280;-69
2024/04/25 03:34:32;;;;;;;7.20;3.73;;;1.40;99.90;;;;;;2234373;26;21003;-69
2024/04/25 03:35:32;;;;;;;3.87;3.23;;;1.40;99.90;;;;;;2216504;26;20266;-69
2024/04/25 03:36:33;;;;;;;4.00;3.37;;;1.40;99.90;;;;;;2231136;26;20271;-69
2024/04/25 03:37:34;;;;;;;5.47;4.10;;;1.40;99.90;;;;;;2223860;26;20358;-69
2024/04/25 03:38:34;;;;;;;4.27;3.53;;;1.40;99.90;;;;;;2227474;26;20729;-69
2024/04/25 03:39:35;;;;;;;5.87;3.73;;;1.40;99.90;;;;;;2241685;26;20372;-69
2024/04/25 03:40:38;;;;;;;5.07;2.80;;;1.40;99.90;;;;;;2242250;26;20718;-69
2024/04/25 03:41:40;;;;;;;5.88;4.25;;;1.40;99.90;;;;;;2243773;26;20781;-69
2024/04/25 03:42:40;;;;;;;3.85;2.90;;;1.40;99.90;;;;;;2246624;26;20270;-69
2024/04/25 03:43:41;;;;;;;5.20;3.53;;;1.50;99.90;;;;;;2228888;26;20605;-69
2024/04/25 03:44:42;;;;;;;4.83;3.30;;;1.50;99.90;;;;;;2219683;26;20263;-69
2024/04/25 03:45:42;;;;;;;5.40;3.23;;;1.50;99.90;;;;;;2236262;26;20383;-69
2024/04/25 03:46:46;;;;;;;5.50;3.40;;;1.50;99.90;;;;;;2235731;26;20297;-69
2024/04/25 03:47:47;;;;;;;3.97;3.30;;;1.50;99.90;;;;;;2229581;26;20785;-69
2024/04/25 03:48:48;;;;;;;5.63;3.20;;;1.60;99.90;;;;;;2241614;26;20319;-69
2024/04/25 03:49:48;;;;;;;5.53;2.67;;;1.60;99.90;;;;;;2233155;26;20621;-69
2024/04/25 03:50:49;;;;;;;4.43;3.20;;;1.70;99.90;;;;;;2235062;26;20333;-69
2024/04/25 03:51:50;;;;;;;5.10;3.10;;;1.70;99.90;;;;;;2235045;26;20779;-69
2024/04/25 03:52:51;;;;;;;6.27;2.80;;;1.60;99.90;;;;;;2236319;26;20275;-69
2024/04/25 03:53:51;;;;;;;4.87;2.87;;;1.60;99.90;;;;;;2229194;26;20789;-69
2024/04/25 03:54:52;;;;;;;3.43;2.30;;;1.60;99.90;;;;;;2220345;26;20379;-69
2024/04/25 03:55:53;;;;;;;5.13;2.50;;;1.60;99.90;;;;;;2235226;26;20313;-69
2024/04/25 03:56:54;;;;;;;3.83;2.97;;;1.60;99.90;;;;;;2243343;26;20755;-69
2024/04/25 03:57:54;;;;;;;3.60;2.63;;;1.60;99.90;;;;;;2235390;26;20380;-69
2024/04/25 03:58:55;;;;;;;3.97;3.13;;;1.60;99.90;;;;;;2229451;26;20499;-69
2024/04/25 03:59:56;;;;;;;5.17;3.93;;;1.50;99.90;;;;;;2243175;26;20263;-69
2024/04/25 04:00:56;;;;;;;4.17;3.03;;;1.50;99.90;;;;;;2237983;26;20643;-69
2024/04/25 04:01:58;;;;;;;6.10;4.07;;;1.50;99.90;;;;;;2243266;26;20315;-69
2024/04/25 04:02:59;;;;;;;7.65;3.50;;;1.50;99.90;;;;;;2250376;26;20301;-69
2024/04/25 04:04:00;;;;;;;7.53;4.00;;;1.60;99.90;;;;;;2234403;26;20272;-70
2024/04/25 04:05:00;;;;;;;5.20;3.73;;;1.60;99.90;;;;;;2233984;26;20276;-69
2024/04/25 04:06:01;;;;;;;5.40;3.97;;;1.60;99.90;;;;;;2218692;26;20244;-69
2024/04/25 04:07:02;;;;;;;5.50;3.57;;;1.70;99.90;;;;;;2210996;26;20241;-68
2024/04/25 04:08:03;;;;;;;5.47;3.33;;;1.70;99.90;;;;;;2218668;26;20295;-69
2024/04/25 04:09:04;;;;;;;3.78;2.58;;;1.80;99.90;;;;;;2222282;26;20738;-69
2024/04/25 04:10:05;;;;;;;5.70;3.27;;;1.80;99.90;;;;;;2231519;26;20308;-69
2024/04/25 04:11:06;;;;;;;5.15;2.90;;;1.70;99.90;;;;;;2233590;26;20229;-69
2024/04/25 04:12:07;;;;;;;3.47;2.83;;;1.60;99.90;;;;;;2234613;26;20229;-69
2024/04/25 04:13:08;;;;;;;5.70;3.27;;;1.60;99.90;;;;;;2248547;26;20263;-69
2024/04/25 04:14:09;;;;;;;4.78;3.75;;;1.60;99.90;;;;;;2242466;26;20223;-69
2024/04/25 04:15:09;;;;;;;7.17;4.77;;;1.60;99.90;;;;;;2239087;26;20218;-69
2024/04/25 04:16:11;;;;;;;6.27;3.50;;;1.60;99.90;;;;;;2235817;26;20225;-69
2024/04/25 04:17:12;;;;;;;6.53;3.90;;;1.60;99.90;;;;;;2229598;26;20262;-69
2024/04/25 04:18:13;;;;;;;3.93;3.27;;;1.60;99.90;;;;;;2241720;26;20749;-69
2024/04/25 04:19:17;;;;;;;6.13;4.07;;;1.60;99.90;;;;;;2235821;26;20304;-69
2024/04/25 04:20:17;;;;;;;4.43;3.40;;;1.50;99.90;;;;;;2240443;26;20662;-69
2024/04/25 04:21:18;;;;;;;3.97;2.90;;;1.50;99.90;;;;;;2232260;26;20223;-69
2024/04/25 04:22:19;;;;;;;6.30;3.50;;;1.50;99.90;;;;;;2241584;26;20323;-69
2024/04/25 04:23:20;;;;;;;8.43;3.23;;;1.60;99.90;;;;;;2243205;26;20217;-69
2024/04/25 04:24:20;;;;;;;4.43;2.87;;;1.60;99.90;;;;;;2237940;26;20271;-69
2024/04/25 04:25:21;;;;;;;4.20;2.87;;;1.60;99.90;;;;;;2210079;26;21037;-69
2024/04/25 04:26:22;;;;;;;4.43;2.80;;;1.60;99.90;;;;;;2222316;26;20272;-69
2024/04/25 04:27:23;;;;;;;3.97;2.73;;;1.60;99.90;;;;;;2249724;26;20270;-69
2024/04/25 04:28:23;;;;;;;5.83;3.10;;;1.60;99.90;;;;;;2250261;26;20297;-68
2024/04/25 04:29:24;;;;;;;3.87;2.77;;;1.70;99.90;;;;;;2220911;26;20268;-69
2024/04/25 04:30:25;;;;;;;4.27;2.60;;;1.70;99.90;;;;;;2215211;26;20887;-68
2024/04/25 04:31:25;;;;;;;3.03;2.73;;;1.60;99.90;;;;;;2248466;26;20312;-68
2024/04/25 04:32:26;;;;;;;3.83;2.47;;;1.60;99.90;;;;;;2243785;26;20272;-69
2024/04/25 04:33:27;;;;;;;6.37;3.13;;;1.60;99.90;;;;;;2241459;26;20266;-69
2024/04/25 04:34:28;;;;;;;5.10;2.90;;;1.70;99.90;;;;;;2242798;26;20733;-69
2024/04/25 04:35:28;;;;;;;5.33;2.90;;;1.70;99.90;;;;;;2230260;26;20334;-68
2024/04/25 04:36:33;;;;;;;4.53;2.60;;;1.80;99.90;;;;;;2222719;26;20301;-68
2024/04/25 04:37:34;;;;;;;4.47;2.92;;;1.70;99.90;;;;;;2229492;26;20865;-69
2024/04/25 04:38:35;;;;;;;3.93;2.80;;;1.70;99.90;;;;;;2235477;26;20337;-69
2024/04/25 04:39:36;;;;;;;6.60;3.33;;;1.70;99.90;;;;;;2234832;26;20269;-69
2024/04/25 04:40:36;;;;;;;3.57;3.03;;;1.60;99.90;;;;;;2242840;26;20269;-69
2024/04/25 04:41:37;;;;;;;5.20;3.30;;;1.60;99.90;;;;;;2242498;26;20359;-69
2024/04/25 04:42:38;;;;;;;4.50;3.00;;;1.60;99.90;;;;;;2233674;26;20304;-69
2024/04/25 04:43:39;;;;;;;3.83;3.07;;;1.70;99.90;;;;;;2232531;26;20306;-68
2024/04/25 04:44:40;;;;;;;6.43;3.58;;;1.60;99.90;;;;;;2244714;26;20269;-68
2024/04/25 04:45:40;;;;;;;4.10;2.40;;;1.50;99.90;;;;;;2239716;26;20266;-68
2024/04/25 04:46:42;;;;;;;4.93;3.10;;;1.50;99.90;;;;;;2227688;26;20265;-69
2024/04/25 04:47:42;;;;;;;5.25;2.75;;;1.50;99.90;;;;;;2232072;26;20322;-68
2024/04/25 04:48:45;;;;;;;4.27;2.60;;;1.50;99.90;;;;;;2232391;26;20277;-68
2024/04/25 04:49:46;;;;;;;4.13;2.45;;;1.40;99.90;;;;;;2228497;26;20440;-68
2024/04/25 04:50:46;;;;;;;4.90;2.80;;;1.50;99.90;;;;;;2226697;26;20270;-68
2024/04/25 04:51:47;;;;;;;3.20;2.70;;;1.50;99.90;;;;;;2237509;26;20267;-68
2024/04/25 04:52:48;;;;;;;3.00;2.70;;;1.50;99.90;;;;;;2249822;26;20278;-68
2024/04/25 04:53:48;;;;;;;4.60;3.03;;;1.60;99.90;;;;;;2249207;26;20268;-69
2024/04/25 04:54:49;;;;;;;4.20;2.97;;;1.70;99.90;;;;;;2249941;26;20326;-69
2024/04/25 04:55:50;;;;;;;3.63;2.80;;;1.80;99.90;;;;;;2244210;26;20308;-69
2024/04/25 04:56:50;;;;;;;8.93;2.87;;;1.90;99.90;;;;;;2240937;26;20276;-68
2024/04/25 04:57:51;;;;;;;4.67;2.80;;;2.00;99.90;;;;;;2241881;26;20272;-68
2024/04/25 04:58:54;;;;;;;3.50;3.20;;;2.10;99.90;;;;;;2234525;26;20825;-69
2024/04/25 04:59:55;;;;;;;5.72;3.35;;;2.10;99.90;;;;;;2230002;26;20651;-68
2024/04/25 05:00:56;;;;;;;6.80;4.80;;;2.20;99.90;;;;;;2226864;26;20373;-69
2024/04/25 05:01:56;;;;;;;7.87;4.63;;;2.10;99.90;;;;;;2238967;26;20272;-69
2024/04/25 05:02:57;;;;;;;6.43;4.00;;;2.10;99.90;;;;;;2248269;26;20488;-68
2024/04/25 05:03:58;;;;;;;8.17;5.00;;;2.10;99.90;;;;;;2242714;26;20448;-69
2024/04/25 05:04:58;;;;;;;5.30;3.53;;;2.10;99.90;;;;;;2230795;26;20269;-68
2024/04/25 05:05:59;;;;;;;6.73;4.27;;;2.10;99.90;;;;;;2245777;26;20266;-68
2024/04/25 05:07:00;;;;;;;6.30;3.53;;;2.20;99.90;;;;;;2229438;26;20268;-68
2024/04/25 05:08:00;;;;;;;7.70;4.57;;;2.20;99.90;;;;;;2213627;26;20307;-68
2024/04/25 05:09:01;;;;;;;9.43;3.77;;;2.10;99.90;;;;;;2236772;26;20736;-67
2024/04/25 05:10:02;;;;;;;13.73;6.03;;;2.10;99.90;;;;;;2239188;26;20793;-68
2024/04/25 05:11:03;;;;;;;13.83;7.27;;;2.10;99.90;;;;;;2262495;26;20619;-68
2024/04/25 05:12:04;;;;;;;17.97;7.07;;;2.20;99.90;;;;;;2243284;26;20516;-69
2024/04/25 05:13:04;;;;;;;6.97;3.97;;;2.10;99.90;;;;;;2228574;26;20264;-69
2024/04/25 05:14:05;;;;;;;6.03;3.57;;;2.20;99.90;;;;;;2234911;26;20222;-68
2024/04/25 05:15:06;;;;;;;4.20;3.23;;;2.10;99.90;;;;;;2222237;26;20229;-69
2024/04/25 05:16:09;;;;;;;5.07;2.80;;;2.20;99.90;;;;;;2247566;26;20233;-69
2024/04/25 05:17:10;;;;;;;3.92;2.70;;;2.20;99.90;;;;;;2223634;26;20232;-69
2024/04/25 05:18:10;;;;;;;3.93;2.30;;;2.20;99.90;;;;;;2229312;26;20218;-69
2024/04/25 05:19:11;;;;;;;4.07;2.87;;;2.20;99.90;;;;;;2212050;26;20224;-68
2024/04/25 05:20:12;;;;;;;5.53;3.10;;;2.20;99.90;;;;;;2232718;26;20231;-69
2024/04/25 05:21:13;;;;;;;5.47;3.73;;;2.20;99.90;;;;;;2234282;26;20236;-68
2024/04/25 05:22:14;;;;;;;7.40;4.40;;;2.20;99.90;;;;;;2235123;26;20258;-69
2024/04/25 05:23:15;;;;;;;5.17;3.03;;;2.10;99.90;;;;;;2228747;26;20231;-69
2024/04/25 05:24:15;;;;;;;4.28;3.28;;;2.10;99.90;;;;;;2230204;26;20225;-69
2024/04/25 05:25:16;;;;;;;5.43;2.80;;;2.20;99.90;;;;;;2233500;26;20688;-69
2024/04/25 05:26:17;;;;;;;4.57;3.23;;;2.20;99.90;;;;;;2213753;26;20224;-69
2024/04/25 05:27:17;;;;;;;4.47;2.90;;;2.30;99.90;;;;;;2213887;26;20236;-68